Time;durP1;ratioP1;P1;durP2;ratioP2;P2;SDS_P1;SDS_P2;PMS_P1;PMS_P2;Temp;Humidity;BMP_temperature;BMP_pressure;BME280_temperature;BME280_humidity;BME280_pressure;Samples;Min_cycle;Max_cycle;Signal;HPM_P1;HPM_P2
2021/03/08 00:01:32;;;;;;;;;78.25;58.75;;;;;-142.71;100.00;64517.53;3724834;37;18130;-59
2021/03/08 00:03:59;;;;;;;;;80.75;63.00;;;;;-142.71;100.00;64517.53;3725036;38;18150;-58
2021/03/08 00:06:25;;;;;;;;;81.50;63.50;;;;;-142.71;100.00;64517.53;3725051;38;18143;-58
2021/03/08 00:08:52;;;;;;;;;78.75;62.00;;;;;-142.71;100.00;64517.53;3724954;37;18145;-59
2021/03/08 00:11:18;;;;;;;;;84.50;63.00;;;;;-142.71;100.00;64517.53;3724686;37;18100;-58
2021/03/08 00:13:44;;;;;;;;;78.00;59.50;;;;;-142.71;100.00;64517.53;3724978;38;18108;-58
2021/03/08 00:16:11;;;;;;;;;70.50;54.50;;;;;-142.71;100.00;64517.53;3724953;38;21046;-57
2021/03/08 00:18:37;;;;;;;;;71.25;57.00;;;;;-142.71;100.00;64517.53;3725070;38;18106;-58
2021/03/08 00:21:04;;;;;;;;;81.25;64.00;;;;;-142.71;100.00;64517.53;3725023;38;21034;-57
2021/03/08 00:23:30;;;;;;;;;75.00;58.00;;;;;-142.71;100.00;64517.53;3725174;38;18117;-58
2021/03/08 00:25:56;;;;;;;;;80.25;58.50;;;;;-142.71;100.00;64517.53;3725229;37;21004;-57
2021/03/08 00:28:22;;;;;;;;;82.75;62.25;;;;;-142.71;100.00;64517.53;3725156;38;21023;-58
2021/03/08 00:30:49;;;;;;;;;75.00;57.00;;;;;-142.71;100.00;64517.53;3724980;37;18086;-59
2021/03/08 00:33:16;;;;;;;;;83.75;59.50;;;;;-142.71;100.00;64517.53;3725309;37;21009;-58
2021/03/08 00:35:43;;;;;;;;;70.00;52.25;;;;;-142.71;100.00;64517.53;3725229;38;18072;-59
2021/03/08 00:38:10;;;;;;;;;72.00;52.00;;;;;-142.71;100.00;64517.53;3725004;38;20980;-59
2021/03/08 00:40:36;;;;;;;;;72.50;54.75;;;;;-142.71;100.00;64517.53;3725013;38;20994;-59
2021/03/08 00:43:02;;;;;;;;;72.25;51.00;;;;;-142.71;100.00;64517.53;3725133;37;18062;-59
2021/03/08 00:45:30;;;;;;;;;78.25;57.00;;;;;-142.71;100.00;64517.53;3725159;37;20966;-58
2021/03/08 00:47:56;;;;;;;;;72.00;52.50;;;;;-142.71;100.00;64517.53;3725127;37;18062;-59
2021/03/08 00:50:26;;;;;;;;;65.50;51.25;;;;;-142.71;100.00;64517.53;3725680;38;18080;-59
2021/03/08 00:52:54;;;;;;;;;68.25;51.75;;;;;-142.71;100.00;64517.53;3725502;38;20966;-59
2021/03/08 00:55:23;;;;;;;;;56.00;44.25;;;;;-142.71;100.00;64517.53;3725659;38;20958;-58
2021/03/08 00:57:50;;;;;;;;;67.25;52.75;;;;;-142.71;100.00;64517.53;3725148;38;20972;-60
2021/03/08 01:00:23;;;;;;;;;57.50;46.50;;;;;-142.71;100.00;64517.53;3724462;38;20950;-59
2021/03/08 01:02:51;;;;;;;;;58.25;47.00;;;;;-142.71;100.00;64517.53;3724394;37;20965;-58
2021/03/08 01:05:17;;;;;;;;;66.50;50.50;;;;;-142.71;100.00;64517.53;3724767;37;20958;-59
2021/03/08 01:07:45;;;;;;;;;59.25;49.00;;;;;-142.71;100.00;64517.53;3724887;38;20969;-58
2021/03/08 01:10:20;;;;;;;;;50.25;43.75;;;;;-142.71;100.00;64517.53;3724918;37;20956;-59
2021/03/08 01:12:46;;;;;;;;;67.25;50.75;;;;;-142.71;100.00;64517.53;3724940;37;20954;-58
2021/03/08 01:15:14;;;;;;;;;59.50;44.75;;;;;-142.71;100.00;64517.53;3724916;38;20947;-58
2021/03/08 01:17:40;;;;;;;;;59.75;49.00;;;;;-142.71;100.00;64517.53;3724971;37;20966;-58
2021/03/08 01:20:14;;;;;;;;;48.50;43.75;;;;;-142.71;100.00;64517.53;3724983;38;20928;-58
2021/03/08 01:22:55;;;;;;;;;49.50;44.00;;;;;-142.71;100.00;64517.53;3724930;37;20937;-58
2021/03/08 01:25:27;;;;;;;;;55.75;44.50;;;;;-142.71;100.00;64517.53;3724667;37;20932;-59
2021/03/08 01:27:54;;;;;;;;;51.50;44.25;;;;;-142.71;100.00;64517.53;3725101;38;20922;-59
2021/03/08 01:30:24;;;;;;;;;53.75;45.75;;;;;-142.71;100.00;64517.53;3724845;37;20943;-59
2021/03/08 01:32:51;;;;;;;;;49.75;38.75;;;;;-142.71;100.00;64517.53;3725008;37;20940;-59
2021/03/08 01:35:19;;;;;;;;;63.25;50.50;;;;;-142.71;100.00;64517.53;3724789;38;20917;-58
2021/03/08 01:37:46;;;;;;;;;55.25;44.75;;;;;-142.71;100.00;64517.53;3725079;38;20928;-59
2021/03/08 01:40:15;;;;;;;;;67.50;50.25;;;;;-142.71;100.00;64517.53;3724959;37;20930;-59
2021/03/08 01:42:48;;;;;;;;;70.00;51.50;;;;;-142.71;100.00;64517.53;3725033;38;20932;-57
2021/03/08 01:45:17;;;;;;;;;58.00;45.25;;;;;-142.71;100.00;64517.53;3724595;38;20884;-61
2021/03/08 01:47:46;;;;;;;;;57.50;49.00;;;;;-142.71;100.00;64517.53;3724705;37;20925;-58
2021/03/08 01:50:31;;;;;;;;;59.75;38.25;;;;;-142.71;100.00;64517.53;3725091;38;20905;-59
2021/03/08 01:52:58;;;;;;;;;63.75;52.50;;;;;-142.71;100.00;64517.53;3725149;38;20920;-58
2021/03/08 01:55:26;;;;;;;;;75.75;50.75;;;;;-142.71;100.00;64517.53;3725140;37;20900;-58
2021/03/08 01:57:54;;;;;;;;;59.00;38.75;;;;;-142.71;100.00;64517.53;3725243;37;17983;-59
2021/03/08 02:00:25;;;;;;;;;62.25;45.25;;;;;-142.71;100.00;64517.53;3724964;37;20874;-61
2021/03/08 02:02:52;;;;;;;;;63.25;46.75;;;;;-142.71;100.00;64517.53;3724921;38;20889;-59
2021/03/08 02:05:24;;;;;;;;;51.75;46.25;;;;;-142.71;100.00;64517.53;3724823;38;20890;-58
2021/03/08 02:07:51;;;;;;;;;62.00;48.00;;;;;-142.71;100.00;64517.53;3724995;38;20876;-59
2021/03/08 02:10:18;;;;;;;;;65.00;47.25;;;;;-142.71;100.00;64517.53;3724892;38;20890;-59
2021/03/08 02:13:18;;;;;;;;;62.75;50.50;;;;;-142.71;100.00;64517.53;3724781;37;20887;-59
2021/03/08 02:16:31;;;;;;;;;53.25;46.50;;;;;-142.71;100.00;64517.53;3725016;37;20842;-58
2021/03/08 02:19:09;;;;;;;;;68.00;52.50;;;;;-142.71;100.00;64517.53;3724863;37;20853;-58
2021/03/08 02:22:32;;;;;;;;;55.25;46.75;;;;;-142.71;100.00;64517.53;3724978;37;20968;-58
2021/03/08 02:25:36;;;;;;;;;59.50;47.75;;;;;-142.71;100.00;64517.53;3724769;37;20872;-58
2021/03/08 02:28:40;;;;;;;;;51.00;39.50;;;;;-142.71;100.00;64517.53;3725225;38;20843;-59
2021/03/08 02:31:12;;;;;;;;;65.50;49.25;;;;;-142.71;100.00;64517.53;3725014;37;20889;-59
2021/03/08 02:33:43;;;;;;;;;49.50;41.75;;;;;-142.71;100.00;64517.53;3724902;37;20854;-59
2021/03/08 02:36:11;;;;;;;;;50.00;40.00;;;;;-142.71;100.00;64517.53;3725032;38;20842;-57
2021/03/08 02:38:44;;;;;;;;;63.25;49.25;;;;;-142.71;100.00;64517.53;3725071;38;20835;-59
2021/03/08 02:41:18;;;;;;;;;60.50;48.25;;;;;-142.71;100.00;64517.53;3725053;37;20859;-57
2021/03/08 02:43:56;;;;;;;;;58.75;48.50;;;;;-142.71;100.00;64517.53;3725085;37;20833;-59
2021/03/08 02:46:31;;;;;;;;;59.25;46.50;;;;;-142.71;100.00;64517.53;3725121;38;20845;-59
2021/03/08 02:49:02;;;;;;;;;61.50;46.00;;;;;-142.71;100.00;64517.53;3725194;38;20811;-59
2021/03/08 02:51:31;;;;;;;;;63.00;45.25;;;;;-142.71;100.00;64517.53;3725069;37;20813;-58
2021/03/08 02:54:01;;;;;;;;;55.75;45.00;;;;;-142.71;100.00;64517.53;3725020;37;20820;-57
2021/03/08 02:56:35;;;;;;;;;62.25;47.75;;;;;-142.71;100.00;64517.53;3724821;37;20830;-59
2021/03/08 02:59:06;;;;;;;;;64.50;49.25;;;;;-142.71;100.00;64517.53;3725050;38;20807;-59
2021/03/08 03:01:36;;;;;;;;;55.25;46.00;;;;;-142.71;100.00;64517.53;3724911;37;20816;-58
2021/03/08 03:04:05;;;;;;;;;54.25;47.00;;;;;-142.71;100.00;64517.53;3724918;37;20790;-60
2021/03/08 03:06:35;;;;;;;;;58.50;46.75;;;;;-142.71;100.00;64517.53;3725322;38;20802;-59
2021/03/08 03:09:06;;;;;;;;;65.75;48.50;;;;;-142.71;100.00;64517.53;3725091;38;20819;-58
2021/03/08 03:11:34;;;;;;;;;58.25;47.00;;;;;-142.71;100.00;64517.53;3725440;38;20811;-60
2021/03/08 03:14:02;;;;;;;;;52.00;46.25;;;;;-142.71;100.00;64517.53;3726478;37;20810;-59
2021/03/08 03:16:29;;;;;;;;;45.75;40.50;;;;;-142.71;100.00;64517.53;3725077;37;20825;-59
2021/03/08 03:18:57;;;;;;;;;64.50;45.75;;;;;-142.71;100.00;64517.53;3726038;38;20714;-57
2021/03/08 03:21:32;;;;;;;;;11.25;11.25;;;;;-142.71;100.00;64517.53;3732873;38;20783;-57
2021/03/08 03:24:00;;;;;;;;;50.50;43.25;;;;;-142.71;100.00;64517.53;3731763;38;20747;-58
2021/03/08 03:26:29;;;;;;;;;51.75;43.75;;;;;-142.71;100.00;64517.53;3732027;37;20780;-57
2021/03/08 03:28:57;;;;;;;;;54.75;48.00;;;;;-142.71;100.00;64517.53;3731983;38;20757;-57
2021/03/08 03:31:23;;;;;;;;;50.50;45.25;;;;;-142.71;100.00;64517.53;3732276;38;20777;-58
2021/03/08 03:33:52;;;;;;;;;37.25;31.75;;;;;-142.71;100.00;64517.53;3732586;37;20780;-57
2021/03/08 03:36:21;;;;;;;;;54.75;42.50;;;;;-142.71;100.00;64517.53;3728782;38;20748;-57
2021/03/08 03:38:48;;;;;;;;;49.50;44.75;;;;;-142.71;100.00;64517.53;3724882;38;20773;-59
2021/03/08 03:41:14;;;;;;;;;54.50;45.75;;;;;-142.71;100.00;64517.53;3725307;37;20774;-59
2021/03/08 03:43:40;;;;;;;;;48.50;40.00;;;;;-142.71;100.00;64517.53;3725412;37;20767;-57
2021/03/08 03:46:07;;;;;;;;;40.50;24.00;;;;;-142.71;100.00;64517.53;3725469;38;20741;-58
2021/03/08 03:48:34;;;;;;;;;53.50;43.25;;;;;-142.71;100.00;64517.53;3725345;37;20739;-58
2021/03/08 03:51:03;;;;;;;;;59.25;43.25;;;;;-142.71;100.00;64517.53;3725283;38;20737;-58
2021/03/08 03:53:29;;;;;;;;;57.75;45.25;;;;;-142.71;100.00;64517.53;3725611;38;20733;-59
2021/03/08 03:55:56;;;;;;;;;35.50;31.00;;;;;-142.71;100.00;64517.53;3725642;38;20734;-59
2021/03/08 03:58:36;;;;;;;;;41.50;36.25;;;;;-142.71;100.00;64517.53;3725250;38;20706;-58
2021/03/08 04:01:18;;;;;;;;;46.00;42.00;;;;;-142.71;100.00;64517.53;3725295;37;20753;-57
2021/03/08 04:04:20;;;;;;;;;39.00;32.00;;;;;-142.71;100.00;64517.53;3725397;37;20740;-60
2021/03/08 04:06:53;;;;;;;;;46.50;42.00;;;;;-142.71;100.00;64517.53;3724813;38;20669;-56
2021/03/08 04:09:24;;;;;;;;;35.00;30.00;;;;;-142.71;100.00;64517.53;3724853;37;20718;-58
2021/03/08 04:11:54;;;;;;;;;43.50;32.00;;;;;-142.71;100.00;64517.53;3725252;37;20701;-58
2021/03/08 04:14:24;;;;;;;;;45.00;34.25;;;;;-142.71;100.00;64517.53;3725150;37;20722;-58
2021/03/08 04:16:55;;;;;;;;;51.50;42.25;;;;;-142.71;100.00;64517.53;3724970;37;20698;-56
2021/03/08 04:19:30;;;;;;;;;55.75;42.75;;;;;-142.71;100.00;64517.53;3725302;38;20686;-58
2021/03/08 04:22:02;;;;;;;;;37.00;33.75;;;;;-142.71;100.00;64517.53;3725280;38;20710;-60
2021/03/08 04:24:33;;;;;;;;;38.00;29.25;;;;;-142.71;100.00;64517.53;3725164;38;20691;-58
2021/03/08 04:27:08;;;;;;;;;50.25;42.50;;;;;-142.71;100.00;64517.53;3724827;37;20677;-59
2021/03/08 04:29:43;;;;;;;;;56.25;45.00;;;;;-142.71;100.00;64517.53;3725369;38;20694;-58
2021/03/08 04:32:11;;;;;;;;;51.50;41.50;;;;;-142.71;100.00;64517.53;3725118;37;20692;-58
2021/03/08 04:34:41;;;;;;;;;56.00;45.25;;;;;-142.71;100.00;64517.53;3725030;38;20700;-58
2021/03/08 04:37:07;;;;;;;;;45.00;39.00;;;;;-142.71;100.00;64517.53;3725038;38;20685;-58
2021/03/08 04:39:37;;;;;;;;;47.00;40.25;;;;;-142.71;100.00;64517.53;3725240;37;20688;-58
2021/03/08 04:42:08;;;;;;;;;43.75;39.25;;;;;-142.71;100.00;64517.53;3725505;37;20849;-58
2021/03/08 04:44:36;;;;;;;;;48.75;38.00;;;;;-142.71;100.00;64517.53;3725294;37;20643;-58
2021/03/08 04:47:03;;;;;;;;;63.25;45.25;;;;;-142.71;100.00;64517.53;3725291;37;20663;-57
2021/03/08 04:49:33;;;;;;;;;47.00;35.75;;;;;-142.71;100.00;64517.53;3725010;37;20655;-58
2021/03/08 04:52:00;;;;;;;;;59.75;45.25;;;;;-142.71;100.00;64517.53;3724975;38;20692;-58
2021/03/08 04:54:27;;;;;;;;;46.00;33.50;;;;;-142.71;100.00;64517.53;3725220;37;20636;-58
2021/03/08 04:56:55;;;;;;;;;53.25;45.75;;;;;-142.71;100.00;64517.53;3724816;37;20656;-59
2021/03/08 04:59:24;;;;;;;;;65.75;51.50;;;;;-142.71;100.00;64517.53;3724601;38;20658;-59
2021/03/08 05:01:54;;;;;;;;;64.00;50.00;;;;;-142.71;100.00;64517.53;3724610;37;20659;-58
2021/03/08 05:04:22;;;;;;;;;59.50;48.50;;;;;-142.71;100.00;64517.53;3725436;37;17723;-60
2021/03/08 05:06:50;;;;;;;;;66.75;45.00;;;;;-142.71;100.00;64517.53;3725149;38;20649;-59
2021/03/08 05:09:16;;;;;;;;;75.75;60.00;;;;;-142.71;100.00;64517.53;3725154;37;17724;-57
2021/03/08 05:11:44;;;;;;;;;68.25;51.00;;;;;-142.71;100.00;64517.53;3724984;38;17712;-58
2021/03/08 05:14:14;;;;;;;;;67.25;50.25;;;;;-142.71;100.00;64517.53;3725279;37;17717;-58
2021/03/08 05:16:49;;;;;;;;;64.75;52.25;;;;;-142.71;100.00;64517.53;3725115;37;17710;-58
2021/03/08 05:19:19;;;;;;;;;72.25;57.75;;;;;-142.71;100.00;64517.53;3725088;38;17705;-58
2021/03/08 05:21:48;;;;;;;;;70.75;57.25;;;;;-142.71;100.00;64517.53;3725079;37;17709;-57
2021/03/08 05:24:16;;;;;;;;;52.00;47.00;;;;;-142.71;100.00;64517.53;3724735;38;17715;-58
2021/03/08 05:26:43;;;;;;;;;73.75;57.00;;;;;-142.71;100.00;64517.53;3724792;38;20615;-59
2021/03/08 05:29:10;;;;;;;;;71.50;56.50;;;;;-142.71;100.00;64517.53;3725145;37;17677;-57
2021/03/08 05:31:41;;;;;;;;;87.75;64.75;;;;;-142.71;100.00;64517.53;3725366;37;17701;-58
2021/03/08 05:34:10;;;;;;;;;94.00;71.75;;;;;-142.71;100.00;64517.53;3725053;37;17695;-57
2021/03/08 05:36:43;;;;;;;;;96.25;72.50;;;;;-142.71;100.00;64517.53;3725175;38;17677;-57
2021/03/08 05:39:12;;;;;;;;;97.25;70.25;;;;;-142.71;100.00;64517.53;3725091;38;17664;-56
2021/03/08 05:42:11;;;;;;;;;108.00;75.75;;;;;-142.71;100.00;64517.53;3725320;37;17690;-58
2021/03/08 05:45:09;;;;;;;;;100.50;73.50;;;;;-142.71;100.00;64517.53;3725179;37;17644;-59
2021/03/08 05:48:07;;;;;;;;;107.00;78.50;;;;;-142.71;100.00;64517.53;3725020;38;17670;-59
2021/03/08 05:51:11;;;;;;;;;97.50;70.75;;;;;-142.71;100.00;64517.53;3725324;37;17547;-59
2021/03/08 05:54:07;;;;;;;;;89.25;66.00;;;;;-142.71;100.00;64517.53;3725099;37;17584;-63
2021/03/08 05:57:17;;;;;;;;;82.75;66.00;;;;;-142.71;100.00;64517.53;3725607;38;17540;-57
2021/03/08 06:00:18;;;;;;;;;92.25;72.00;;;;;-142.71;100.00;64517.53;3725513;37;17518;-57
2021/03/08 06:03:29;;;;;;;;;93.50;73.50;;;;;-142.71;100.00;64517.53;3725511;38;17546;-58
2021/03/08 06:06:24;;;;;;;;;91.75;66.75;;;;;-142.71;100.00;64517.53;3725491;37;17533;-56
2021/03/08 06:09:21;;;;;;;;;88.25;66.50;;;;;-142.71;100.00;64517.53;3725745;37;18506;-58
2021/03/08 06:12:10;;;;;;;;;79.00;62.50;;;;;-142.71;100.00;64517.53;3725698;38;18517;-57
2021/03/08 06:14:43;;;;;;;;;93.00;66.50;;;;;-142.71;100.00;64517.53;3725606;38;18864;-59
2021/03/08 06:17:18;;;;;;;;;80.75;63.50;;;;;-142.71;100.00;64517.53;3725704;37;18524;-61
2021/03/08 06:19:45;;;;;;;;;81.25;58.25;;;;;-142.71;100.00;64517.53;3725542;37;18500;-61
2021/03/08 06:22:13;;;;;;;;;82.75;63.50;;;;;-142.71;100.00;64517.53;3725592;38;18492;-59
2021/03/08 06:24:41;;;;;;;;;90.50;66.50;;;;;-142.71;100.00;64517.53;3725629;37;18490;-59
2021/03/08 06:27:09;;;;;;;;;92.50;67.50;;;;;-142.71;100.00;64517.53;3725576;37;18505;-57
2021/03/08 06:29:36;;;;;;;;;81.50;63.00;;;;;-142.71;100.00;64517.53;3725459;38;18500;-57
2021/03/08 06:32:05;;;;;;;;;81.75;62.25;;;;;-142.71;100.00;64517.53;3725519;38;18494;-57
2021/03/08 06:34:33;;;;;;;;;71.25;58.00;;;;;-142.71;100.00;64517.53;3725220;37;18502;-57
2021/03/08 06:37:05;;;;;;;;;69.25;56.50;;;;;-142.71;100.00;64517.53;3725655;38;18478;-57
2021/03/08 06:39:39;;;;;;;;;67.00;54.75;;;;;-142.71;100.00;64517.53;3725228;38;20641;-59
2021/03/08 06:42:07;;;;;;;;;59.25;43.50;;;;;-142.71;100.00;64517.53;3725223;37;20628;-59
2021/03/08 06:44:34;;;;;;;;;52.25;39.50;;;;;-142.71;100.00;64517.53;3725274;38;20640;-60
2021/03/08 06:47:01;;;;;;;;;45.00;41.25;;;;;-142.71;100.00;64517.53;3725314;38;20635;-59
2021/03/08 06:49:40;;;;;;;;;43.75;39.25;;;;;-142.71;100.00;64517.53;3724819;38;21493;-59
2021/03/08 06:52:08;;;;;;;;;41.50;38.25;;;;;-142.71;100.00;64517.53;3725334;37;21476;-59
2021/03/08 06:54:39;;;;;;;;;44.00;39.75;;;;;-142.71;100.00;64517.53;3725065;37;21783;-58
2021/03/08 06:57:35;;;;;;;;;54.75;43.50;;;;;-142.71;100.00;64517.53;3724962;38;21474;-62
2021/03/08 07:00:13;;;;;;;;;46.50;41.50;;;;;-142.71;100.00;64517.53;3725029;38;21467;-61
2021/03/08 07:02:47;;;;;;;;;58.50;44.50;;;;;-142.71;100.00;64517.53;3724540;37;21487;-59
2021/03/08 07:05:33;;;;;;;;;42.50;31.50;;;;;-142.71;100.00;64517.53;3725197;38;21493;-57
2021/03/08 07:08:01;;;;;;;;;60.75;45.50;;;;;-142.71;100.00;64517.53;3725291;37;21450;-60
2021/03/08 07:10:41;;;;;;;;;59.25;43.00;;;;;-142.71;100.00;64517.53;3724914;37;21458;-61
2021/03/08 07:13:10;;;;;;;;;57.25;46.50;;;;;-142.71;100.00;64517.53;3724624;37;21496;-61
2021/03/08 07:15:56;;;;;;;;;59.50;47.00;;;;;-142.71;100.00;64517.53;3725019;37;21473;-60
2021/03/08 07:18:25;;;;;;;;;60.25;48.50;;;;;-142.71;100.00;64517.53;3725262;37;21434;-59
2021/03/08 07:21:14;;;;;;;;;58.00;46.00;;;;;-142.71;100.00;64517.53;3724972;38;21453;-59
2021/03/08 07:23:44;;;;;;;;;36.00;32.25;;;;;-142.71;100.00;64517.53;3724863;38;21443;-60
2021/03/08 07:26:30;;;;;;;;;51.25;42.25;;;;;-142.71;100.00;64517.53;3725026;37;21427;-59
2021/03/08 07:29:15;;;;;;;;;53.25;42.50;;;;;-142.71;100.00;64517.53;3725089;38;21433;-58
2021/03/08 07:31:52;;;;;;;;;53.25;40.25;;;;;-142.71;100.00;64517.53;3725148;38;21445;-59
2021/03/08 07:34:20;;;;;;;;;52.25;40.25;;;;;-142.71;100.00;64517.53;3725071;37;21453;-57
2021/03/08 07:37:06;;;;;;;;;43.00;35.00;;;;;-142.71;100.00;64517.53;3725170;38;21431;-59
2021/03/08 07:39:32;;;;;;;;;40.25;33.25;;;;;-142.71;100.00;64517.53;3725003;37;21415;-58
2021/03/08 07:42:09;;;;;;;;;37.25;34.75;;;;;-142.71;100.00;64517.53;3725142;37;21441;-58
2021/03/08 07:44:51;;;;;;;;;36.50;33.75;;;;;-142.71;100.00;64517.53;3725197;37;21426;-57
2021/03/08 07:47:19;;;;;;;;;39.00;33.50;;;;;-142.71;100.00;64517.53;3725079;37;21413;-56
2021/03/08 07:49:47;;;;;;;;;30.75;25.00;;;;;-142.71;100.00;64517.53;3725163;37;21404;-57
2021/03/08 07:52:17;;;;;;;;;27.75;25.25;;;;;-142.71;100.00;64517.53;3725134;37;21420;-55
2021/03/08 07:55:03;;;;;;;;;14.25;12.75;;;;;-142.71;100.00;64517.53;3725169;37;21391;-57
2021/03/08 07:57:30;;;;;;;;;27.00;25.25;;;;;-142.71;100.00;64517.53;3724952;37;21370;-57
2021/03/08 07:59:57;;;;;;;;;27.25;22.25;;;;;-142.71;100.00;64517.53;3725016;37;21319;-59
2021/03/08 08:02:24;;;;;;;;;27.00;21.75;;;;;-142.71;100.00;64517.53;3724640;37;21415;-56
2021/03/08 08:04:52;;;;;;;;;28.75;23.25;;;;;-142.71;100.00;64517.53;3724694;37;21341;-56
2021/03/08 08:07:22;;;;;;;;;23.00;20.50;;;;;-142.71;100.00;64517.53;3725107;38;21303;-58
2021/03/08 08:09:50;;;;;;;;;17.75;16.50;;;;;-142.71;100.00;64517.53;3725027;37;21299;-57
2021/03/08 08:12:28;;;;;;;;;19.00;16.25;;;;;-142.71;100.00;64517.53;3725053;37;21280;-57
2021/03/08 08:14:57;;;;;;;;;20.50;19.00;;;;;-142.71;100.00;64517.53;3725016;38;21303;-58
2021/03/08 08:17:28;;;;;;;;;14.25;13.00;;;;;-142.71;100.00;64517.53;3725090;38;21289;-57
2021/03/08 08:19:56;;;;;;;;;15.25;13.00;;;;;-142.71;100.00;64517.53;3724977;37;21262;-59
2021/03/08 08:22:24;;;;;;;;;13.75;13.00;;;;;-142.71;100.00;64517.53;3725003;37;21281;-58
2021/03/08 08:24:56;;;;;;;;;25.00;21.00;;;;;-142.71;100.00;64517.53;3725139;37;21206;-58
2021/03/08 08:27:26;;;;;;;;;21.75;19.25;;;;;-142.71;100.00;64517.53;3724831;37;21277;-61
2021/03/08 08:29:53;;;;;;;;;18.75;17.00;;;;;-142.71;100.00;64517.53;3724930;38;21273;-63
2021/03/08 08:32:19;;;;;;;;;17.50;16.00;;;;;-142.71;100.00;64517.53;3725081;37;21211;-57
2021/03/08 08:34:53;;;;;;;;;20.00;19.00;;;;;-142.71;100.00;64517.53;3725086;37;21246;-58
2021/03/08 08:37:22;;;;;;;;;20.50;16.50;;;;;-142.71;100.00;64517.53;3725040;37;21252;-57
2021/03/08 08:40:14;;;;;;;;;13.25;13.25;;;;;-142.71;100.00;64517.53;3724914;38;21247;-57
2021/03/08 08:42:40;;;;;;;;;18.75;18.00;;;;;-142.71;100.00;64517.53;3724855;37;21208;-58
2021/03/08 08:45:28;;;;;;;;;24.75;23.00;;;;;-142.71;100.00;64517.53;3725229;37;21238;-58
2021/03/08 08:48:05;;;;;;;;;18.25;18.00;;;;;-142.71;100.00;64517.53;3725045;37;21251;-58
2021/03/08 08:50:50;;;;;;;;;15.75;15.25;;;;;-142.71;100.00;64517.53;3725348;37;20436;-58
2021/03/08 08:53:51;;;;;;;;;19.50;16.00;;;;;-142.71;100.00;64517.53;3725420;37;20437;-58
2021/03/08 08:56:17;;;;;;;;;22.00;19.25;;;;;-142.71;100.00;64517.53;3725427;37;20388;-57
2021/03/08 08:58:48;;;;;;;;;17.50;15.50;;;;;-142.71;100.00;64517.53;3725248;38;20410;-56
2021/03/08 09:01:36;;;;;;;;;24.25;19.25;;;;;-142.71;100.00;64517.53;3725356;38;20428;-60
2021/03/08 09:04:09;;;;;;;;;24.00;21.00;;;;;-142.71;100.00;64517.53;3725284;37;20426;-58
2021/03/08 09:07:02;;;;;;;;;19.75;15.25;;;;;-142.71;100.00;64517.53;3725507;38;20373;-56
2021/03/08 09:09:55;;;;;;;;;25.25;18.75;;;;;-142.71;100.00;64517.53;3725490;38;20390;-58
2021/03/08 09:12:35;;;;;;;;;23.75;19.25;;;;;-142.71;100.00;64517.53;3725666;38;20390;-57
2021/03/08 09:15:10;;;;;;;;;20.75;17.25;;;;;-142.71;100.00;64517.53;3727341;37;20383;-57
2021/03/08 09:17:46;;;;;;;;;18.50;16.75;;;;;-142.71;100.00;64517.53;3725376;38;20401;-58
2021/03/08 09:20:33;;;;;;;;;21.25;20.00;;;;;-142.71;100.00;64517.53;3725712;37;20393;-58
2021/03/08 09:23:02;;;;;;;;;23.25;22.25;;;;;-142.71;100.00;64517.53;3725278;37;20366;-57
2021/03/08 09:25:33;;;;;;;;;21.50;17.50;;;;;-142.71;100.00;64517.53;3725434;38;20528;-58
2021/03/08 09:28:05;;;;;;;;;20.25;18.75;;;;;-142.71;100.00;64517.53;3725239;37;20492;-56
2021/03/08 09:30:41;;;;;;;;;27.75;23.50;;;;;-142.71;100.00;64517.53;3725387;38;20469;-58
2021/03/08 09:33:10;;;;;;;;;18.50;16.25;;;;;-142.71;100.00;64517.53;3724976;38;20811;-56
2021/03/08 09:35:42;;;;;;;;;22.50;20.75;;;;;-142.71;100.00;64517.53;3725344;37;20344;-56
2021/03/08 09:38:19;;;;;;;;;20.50;19.00;;;;;-142.71;100.00;64517.53;3725386;38;20355;-56
2021/03/08 09:40:57;;;;;;;;;20.75;17.25;;;;;-142.71;100.00;64517.53;3725294;37;20372;-57
2021/03/08 09:43:32;;;;;;;;;29.25;25.25;;;;;-142.71;100.00;64517.53;3725650;38;20351;-59
2021/03/08 09:46:13;;;;;;;;;23.50;21.25;;;;;-142.71;100.00;64517.53;3725058;38;20389;-57
2021/03/08 09:48:51;;;;;;;;;18.00;17.75;;;;;-142.71;100.00;64517.53;3725097;37;21129;-56
2021/03/08 09:51:18;;;;;;;;;17.50;15.50;;;;;-142.71;100.00;64517.53;3725012;38;21152;-58
2021/03/08 09:53:54;;;;;;;;;21.50;18.00;;;;;-142.71;100.00;64517.53;3724394;38;21152;-60
2021/03/08 09:56:26;;;;;;;;;23.25;18.25;;;;;-142.71;100.00;64517.53;3724847;38;21159;-58
2021/03/08 09:59:08;;;;;;;;;21.50;19.25;;;;;-142.71;100.00;64517.53;3724868;38;21141;-58
2021/03/08 10:01:36;;;;;;;;;19.00;17.00;;;;;-142.71;100.00;64517.53;3724829;37;21163;-57
2021/03/08 10:04:04;;;;;;;;;24.00;18.00;;;;;-142.71;100.00;64517.53;3724942;37;21237;-57
2021/03/08 10:06:34;;;;;;;;;21.00;19.25;;;;;-142.71;100.00;64517.53;3725341;37;21317;-57
2021/03/08 10:09:22;;;;;;;;;19.00;18.25;;;;;-142.71;100.00;64517.53;3724962;37;21127;-58
2021/03/08 10:12:01;;;;;;;;;19.25;17.75;;;;;-142.71;100.00;64517.53;3724877;37;21119;-58
2021/03/08 10:14:29;;;;;;;;;19.50;17.75;;;;;-142.71;100.00;64517.53;3725111;37;21322;-59
2021/03/08 10:17:09;;;;;;;;;15.00;14.75;;;;;-142.71;100.00;64517.53;3724914;37;21116;-59
2021/03/08 10:19:35;;;;;;;;;22.00;18.00;;;;;-142.71;100.00;64517.53;3724790;38;21115;-58
2021/03/08 10:22:02;;;;;;;;;20.50;18.00;;;;;-142.71;100.00;64517.53;3725102;37;21076;-58
2021/03/08 10:24:40;;;;;;;;;20.75;19.25;;;;;-142.71;100.00;64517.53;3724817;37;21104;-59
2021/03/08 10:27:11;;;;;;;;;25.00;20.75;;;;;-142.71;100.00;64517.53;3724806;37;21125;-57
2021/03/08 10:29:41;;;;;;;;;30.25;25.00;;;;;-142.71;100.00;64517.53;3724868;38;21094;-58
2021/03/08 10:32:11;;;;;;;;;24.25;19.00;;;;;-142.71;100.00;64517.53;3724755;37;21110;-58
2021/03/08 10:34:39;;;;;;;;;17.25;16.00;;;;;-142.71;100.00;64517.53;3724908;37;21086;-59
2021/03/08 10:37:07;;;;;;;;;25.50;23.00;;;;;-142.71;100.00;64517.53;3725071;37;21214;-58
2021/03/08 10:39:33;;;;;;;;;18.25;13.25;;;;;-142.71;100.00;64517.53;3724832;38;21079;-57
2021/03/08 10:42:00;;;;;;;;;19.25;16.50;;;;;-142.71;100.00;64517.53;3725080;38;21075;-58
2021/03/08 10:44:27;;;;;;;;;16.50;14.00;;;;;-142.71;100.00;64517.53;3724750;38;21095;-57
2021/03/08 10:46:53;;;;;;;;;15.50;12.50;;;;;-142.71;100.00;64517.53;3725192;37;21067;-58
2021/03/08 10:49:20;;;;;;;;;19.75;16.75;;;;;-142.71;100.00;64517.53;3724809;37;21018;-58
2021/03/08 10:51:46;;;;;;;;;19.25;17.50;;;;;-142.71;100.00;64517.53;3724812;37;21088;-58
2021/03/08 10:54:14;;;;;;;;;17.00;17.00;;;;;-142.71;100.00;64517.53;3725039;37;21063;-60
2021/03/08 10:56:42;;;;;;;;;21.50;18.00;;;;;-142.71;100.00;64517.53;3724887;37;21084;-58
2021/03/08 10:59:26;;;;;;;;;13.50;11.50;;;;;-142.71;100.00;64517.53;3724947;38;21080;-57
2021/03/08 11:02:21;;;;;;;;;18.00;16.50;;;;;-142.71;100.00;64517.53;3725335;37;21034;-59
2021/03/08 11:05:10;;;;;;;;;13.25;13.25;;;;;-142.71;100.00;64517.53;3725180;38;21036;-61
2021/03/08 11:07:37;;;;;;;;;17.75;15.75;;;;;-142.71;100.00;64517.53;3725228;37;21066;-57
2021/03/08 11:10:07;;;;;;;;;14.00;13.25;;;;;-142.71;100.00;64517.53;3725248;38;21065;-57
2021/03/08 11:12:34;;;;;;;;;16.00;13.50;;;;;-142.71;100.00;64517.53;3725226;37;21052;-58
2021/03/08 11:15:00;;;;;;;;;20.75;20.25;;;;;-142.71;100.00;64517.53;3725009;38;20972;-57
2021/03/08 11:17:41;;;;;;;;;20.00;17.00;;;;;-142.71;100.00;64517.53;3725088;37;21061;-57
2021/03/08 11:20:26;;;;;;;;;18.25;16.75;;;;;-142.71;100.00;64517.53;3725046;37;21041;-59
2021/03/08 11:23:06;;;;;;;;;16.00;15.50;;;;;-142.71;100.00;64517.53;3725258;38;21033;-57